RU-0404 weather

Osechki Airstrip
Novotitarovskaya, Krasnodar Krai, Russia

Public forecast

Using degrees Celsius for public forecast. Weather courtesy of forecast.io.

METAR (pilot weather report)

Closest report is Krasnodar Pashkovsky International Airport, 16.9 nm (31.4 km) SE. Retrieved 2019/08/21 00:30 UTC (0 seconds ago):

URKK 210030Z 32002MPS 9999 FEW///CB 23/20 Q1013 R23L/CLRD70 NOSIG RMK QFE757

TAF (pilot weather forecast)

Forecast is more than 12 hours old.

Closest forecast is Krasnodar Pashkovsky International Airport, 16.9 nm (31.4 km) SE. Retrieved 2019/08/20 00:21 UTC (24 hours ago):

TAF URKK 202245Z 2100/2124 02003G08MPS 9999 SCT040CB TEMPO 2100/2106 VRB07G14MPS 3100 -TSRA SCT020 BKN030CB TEMPO 2106/2124 06006G12MPS